Time;durP1;ratioP1;P1;durP2;ratioP2;P2;SDS_P1;SDS_P2;PMS_P1;PMS_P2;Temp;Humidity;BMP_temperature;BMP_pressure;BME280_temperature;BME280_humidity;BME280_pressure;Samples;Min_cycle;Max_cycle;Signal;HPM_P1;HPM_P2
2022/12/23 00:00:23;;;;;;;;;;;24.00;71.00;;;;;;5088832;28;19912;-67
2022/12/23 00:02:49;;;;;;;;;;;24.10;70.70;;;;;;5084895;28;19916;-68
2022/12/23 00:05:16;;;;;;;;;;;24.20;70.60;;;;;;5091841;28;19919;-68
2022/12/23 00:07:43;;;;;;;;;;;24.20;69.70;;;;;;5094465;28;19916;-68
2022/12/23 00:10:10;;;;;;;;;;;24.20;68.60;;;;;;5093750;28;19966;-69
2022/12/23 00:15:21;;;;;;;;;;;24.30;68.90;;;;;;5086407;28;20392;-68
2022/12/23 00:17:48;;;;;;;;;;;24.40;68.30;;;;;;5091634;28;19912;-69
2022/12/23 00:20:15;;;;;;;;;;;24.40;68.20;;;;;;5093107;28;19912;-69
2022/12/23 00:25:44;;;;;;;;;;;24.50;67.30;;;;;;5092195;28;19923;-68
2022/12/23 00:28:17;;;;;;;;;;;24.60;66.90;;;;;;5098078;28;19920;-70
2022/12/23 00:30:50;;;;;;;;;;;24.70;66.40;;;;;;5090014;28;19927;-68
2022/12/23 00:33:18;;;;;;;;;;;24.60;65.60;;;;;;5091295;28;19916;-69
2022/12/23 00:35:45;;;;;;;;;;;24.60;65.20;;;;;;5085583;28;19911;-65
2022/12/23 00:38:12;;;;;;;;;;;24.70;64.10;;;;;;5106792;28;20080;-70
2022/12/23 00:43:23;;;;;;;;;;;24.80;64.50;;;;;;5104126;28;20049;-69
2022/12/23 00:45:50;;;;;;;;;;;24.80;64.50;;;;;;5092802;28;19920;-68
2022/12/23 00:51:01;;;;;;;;;;;24.80;63.90;;;;;;5089989;28;19966;-68
2022/12/23 00:53:27;;;;;;;;;;;24.80;63.90;;;;;;5090037;28;20315;-69
2022/12/23 00:55:54;;;;;;;;;;;24.80;64.10;;;;;;5091957;28;19908;-69
2022/12/23 00:58:21;;;;;;;;;;;24.80;63.90;;;;;;5087414;28;19916;-70
2022/12/23 01:06:17;;;;;;;;;;;24.90;63.90;;;;;;5073654;28;20286;-72
2022/12/23 01:08:43;;;;;;;;;;;24.90;63.40;;;;;;5091572;28;20316;-68
2022/12/23 01:11:11;;;;;;;;;;;24.90;63.20;;;;;;5083896;28;19924;-69
2022/12/23 01:13:38;;;;;;;;;;;24.80;63.40;;;;;;5092166;28;19908;-69
2022/12/23 01:16:05;;;;;;;;;;;24.90;63.60;;;;;;5085573;28;19915;-70
2022/12/23 01:18:33;;;;;;;;;;;25.00;64.60;;;;;;5087931;28;19912;-70
2022/12/23 01:21:09;;;;;;;;;;;25.10;64.50;;;;;;5090329;28;19993;-70
2022/12/23 01:23:36;;;;;;;;;;;25.10;62.90;;;;;;5077945;28;19936;-70
2022/12/23 01:26:03;;;;;;;;;;;25.20;62.10;;;;;;5074702;28;20369;-70
2022/12/23 01:28:31;;;;;;;;;;;25.30;62.60;;;;;;5084966;28;19993;-70
2022/12/23 01:30:58;;;;;;;;;;;25.30;62.40;;;;;;5063988;28;20335;-70
2022/12/23 01:33:25;;;;;;;;;;;25.30;61.30;;;;;;5088136;28;19951;-70
2022/12/23 01:35:51;;;;;;;;;;;25.40;61.20;;;;;;5083309;28;19917;-71
2022/12/23 01:38:18;;;;;;;;;;;25.50;61.30;;;;;;5091522;28;19924;-70
2022/12/23 01:40:45;;;;;;;;;;;25.60;60.00;;;;;;5088011;28;19912;-70
2022/12/23 01:43:15;;;;;;;;;;;25.60;60.50;;;;;;5086987;28;19962;-69
2022/12/23 01:45:42;;;;;;;;;;;25.50;60.90;;;;;;5083693;28;19920;-68
2022/12/23 01:48:10;;;;;;;;;;;25.50;60.90;;;;;;5073470;28;20325;-69
2022/12/23 01:50:40;;;;;;;;;;;25.60;61.30;;;;;;5074770;28;19916;-69
2022/12/23 01:53:22;;;;;;;;;;;25.70;58.20;;;;;;5069823;28;20350;-67
2022/12/23 01:55:49;;;;;;;;;;;25.80;60.00;;;;;;5081532;28;19912;-67
2022/12/23 01:58:17;;;;;;;;;;;25.80;59.90;;;;;;5056380;28;19955;-68
2022/12/23 02:03:41;;;;;;;;;;;25.70;58.40;;;;;;5077887;28;19926;-68
2022/12/23 02:30:20;;;;;;;;;;;25.30;67.70;;;;;;5083805;28;19927;-69
2022/12/23 02:33:05;;;;;;;;;;;25.30;69.90;;;;;;5085251;28;20382;-68
2022/12/23 02:35:38;;;;;;;;;;;25.30;69.30;;;;;;5066538;28;20318;-66
2022/12/23 02:38:20;;;;;;;;;;;25.30;67.90;;;;;;5065367;28;19923;-69
2022/12/23 02:40:47;;;;;;;;;;;25.30;68.60;;;;;;5063953;28;19920;-70
2022/12/23 02:43:26;;;;;;;;;;;25.40;68.70;;;;;;5085118;28;19969;-70
2022/12/23 02:46:18;;;;;;;;;;;25.40;68.50;;;;;;5084716;28;19920;-71
2022/12/23 02:48:46;;;;;;;;;;;25.40;69.30;;;;;;5083965;28;20346;-69
2022/12/23 02:51:13;;;;;;;;;;;25.40;69.00;;;;;;5059174;28;19912;-68
2022/12/23 02:53:42;;;;;;;;;;;25.50;68.80;;;;;;5083981;28;19916;-67
2022/12/23 02:56:09;;;;;;;;;;;25.50;68.90;;;;;;5065868;28;19962;-67
2022/12/23 02:58:43;;;;;;;;;;;25.50;67.80;;;;;;5088740;28;20014;-69
2022/12/23 03:01:10;;;;;;;;;;;25.40;66.80;;;;;;5061240;28;19916;-69
2022/12/23 03:03:37;;;;;;;;;;;25.50;65.70;;;;;;5069169;28;19966;-69
2022/12/23 03:06:05;;;;;;;;;;;25.50;68.30;;;;;;5088053;28;19926;-70
2022/12/23 03:08:34;;;;;;;;;;;25.70;68.10;;;;;;5067788;28;20054;-69
2022/12/23 03:11:04;;;;;;;;;;;25.70;69.00;;;;;;5071091;28;19995;-69
2022/12/23 03:13:41;;;;;;;;;;;25.70;69.40;;;;;;5086854;28;20565;-68
2022/12/23 03:16:12;;;;;;;;;;;25.60;67.20;;;;;;5041964;28;20611;-69
2022/12/23 03:18:41;;;;;;;;;;;25.30;66.80;;;;;;5073350;28;20342;-69
2022/12/23 03:21:11;;;;;;;;;;;25.20;65.00;;;;;;5084746;28;20285;-69
2022/12/23 03:23:42;;;;;;;;;;;25.00;64.00;;;;;;5091834;28;20362;-69
2022/12/23 03:26:11;;;;;;;;;;;24.80;64.50;;;;;;5063337;28;19912;-69
2022/12/23 05:38:02;;;;;;;;;;;25.00;66.20;;;;;;5108677;28;19977;-70
2022/12/23 05:40:29;;;;;;;;;;;24.90;61.20;;;;;;5094157;28;19923;-70
2022/12/23 05:42:56;;;;;;;;;;;25.00;58.10;;;;;;5094579;28;20353;-70
2022/12/23 05:45:23;;;;;;;;;;;25.00;56.40;;;;;;5112640;28;19908;-70
2022/12/23 05:47:49;;;;;;;;;;;24.80;55.10;;;;;;5111781;28;19973;-70
2022/12/23 05:50:16;;;;;;;;;;;24.80;55.70;;;;;;5111189;28;20384;-71
2022/12/23 05:52:42;;;;;;;;;;;24.80;55.10;;;;;;5093537;28;20296;-71
2022/12/23 05:55:09;;;;;;;;;;;24.80;55.20;;;;;;5111487;28;19990;-71
2022/12/23 05:57:36;;;;;;;;;;;24.70;55.80;;;;;;5112480;28;19908;-71
2022/12/23 06:00:03;;;;;;;;;;;24.70;56.20;;;;;;5110276;28;19915;-69
2022/12/23 06:02:30;;;;;;;;;;;24.70;55.00;;;;;;5113024;28;20426;-70
2022/12/23 06:04:56;;;;;;;;;;;24.80;56.00;;;;;;5112699;28;19960;-71
2022/12/23 06:07:23;;;;;;;;;;;24.70;55.30;;;;;;5094964;28;19908;-71
2022/12/23 06:09:53;;;;;;;;;;;24.80;53.50;;;;;;5095109;28;20010;-71
2022/12/23 06:12:20;;;;;;;;;;;24.80;54.00;;;;;;5093061;28;20293;-71
2022/12/23 06:14:46;;;;;;;;;;;24.80;55.30;;;;;;5107793;28;19916;-70
2022/12/23 06:17:13;;;;;;;;;;;24.80;56.60;;;;;;5106447;28;19908;-70
2022/12/23 06:19:40;;;;;;;;;;;24.80;57.00;;;;;;5107965;28;19965;-69
2022/12/23 06:22:06;;;;;;;;;;;24.80;57.50;;;;;;5110605;28;20342;-70
2022/12/23 06:24:33;;;;;;;;;;;24.80;58.00;;;;;;5106790;27;19919;-70
2022/12/23 06:26:59;;;;;;;;;;;24.80;57.00;;;;;;5110862;28;20251;-70
2022/12/23 06:29:26;;;;;;;;;;;24.80;61.20;;;;;;5110196;28;19920;-70
2022/12/23 06:31:53;;;;;;;;;;;24.70;65.60;;;;;;5110771;28;19912;-70
2022/12/23 06:34:19;;;;;;;;;;;24.70;66.20;;;;;;5108921;28;19916;-70
2022/12/23 06:36:46;;;;;;;;;;;24.60;66.70;;;;;;5107848;28;19919;-71
2022/12/23 06:39:13;;;;;;;;;;;24.50;67.00;;;;;;5110814;28;20319;-70
2022/12/23 06:41:39;;;;;;;;;;;24.50;67.60;;;;;;5110868;28;19918;-70
2022/12/23 06:44:06;;;;;;;;;;;24.40;68.10;;;;;;5110746;28;19915;-69
2022/12/23 06:46:33;;;;;;;;;;;24.40;68.70;;;;;;5109956;28;19908;-69
2022/12/23 06:48:59;;;;;;;;;;;24.30;68.30;;;;;;5081572;28;20014;-70
2022/12/23 06:51:26;;;;;;;;;;;24.30;68.40;;;;;;5110678;28;20322;-70
2022/12/23 06:53:52;;;;;;;;;;;24.30;68.80;;;;;;5107714;28;19912;-69
2022/12/23 06:56:19;;;;;;;;;;;24.20;68.50;;;;;;5108189;28;19937;-70
2022/12/23 06:58:45;;;;;;;;;;;24.20;68.50;;;;;;5107540;28;19911;-71
2022/12/23 07:01:12;;;;;;;;;;;24.20;68.50;;;;;;5091064;28;19915;-71
2022/12/23 07:03:39;;;;;;;;;;;24.10;67.90;;;;;;5112014;28;19915;-71
2022/12/23 07:06:05;;;;;;;;;;;24.10;68.00;;;;;;5111549;28;19923;-70
2022/12/23 07:08:32;;;;;;;;;;;24.10;67.60;;;;;;5104874;28;20014;-71
2022/12/23 07:10:59;;;;;;;;;;;24.10;66.80;;;;;;5110773;28;19977;-71
2022/12/23 07:13:26;;;;;;;;;;;24.20;67.10;;;;;;5109801;28;19916;-71
2022/12/23 07:15:52;;;;;;;;;;;24.20;66.20;;;;;;5089944;28;19998;-70
2022/12/23 07:18:20;;;;;;;;;;;24.20;64.20;;;;;;5094011;28;20001;-71
2022/12/23 07:20:47;;;;;;;;;;;24.20;63.80;;;;;;5093649;28;20013;-71
2022/12/23 07:23:13;;;;;;;;;;;24.20;63.90;;;;;;5111275;28;19969;-70
2022/12/23 07:25:40;;;;;;;;;;;24.10;64.10;;;;;;5070670;28;19991;-70
2022/12/23 07:28:07;;;;;;;;;;;24.10;64.20;;;;;;5087544;28;20046;-70
2022/12/23 07:30:33;;;;;;;;;;;24.10;63.20;;;;;;5104764;28;20410;-67
2022/12/23 07:33:00;;;;;;;;;;;24.20;64.90;;;;;;5092257;28;19920;-67
2022/12/23 07:35:26;;;;;;;;;;;24.10;65.80;;;;;;5106430;28;19912;-68
2022/12/23 07:37:54;;;;;;;;;;;24.10;66.20;;;;;;5079849;28;19946;-68
2022/12/23 07:40:24;;;;;;;;;;;24.10;66.80;;;;;;5104358;28;19919;-68
2022/12/23 07:42:54;;;;;;;;;;;24.00;66.30;;;;;;5110725;28;20013;-67
2022/12/23 07:45:21;;;;;;;;;;;23.90;63.20;;;;;;5110356;28;19954;-67
2022/12/23 07:47:51;;;;;;;;;;;23.90;61.30;;;;;;5107443;28;20425;-67
2022/12/23 07:50:17;;;;;;;;;;;23.90;61.70;;;;;;5110053;28;19926;-67
2022/12/23 07:52:44;;;;;;;;;;;23.90;59.80;;;;;;5110290;28;20448;-67
2022/12/23 07:55:11;;;;;;;;;;;23.90;58.90;;;;;;5110122;28;19965;-68
2022/12/23 07:57:38;;;;;;;;;;;23.90;59.80;;;;;;5111680;28;19915;-68
2022/12/23 08:00:06;;;;;;;;;;;23.90;62.40;;;;;;5108385;28;20377;-68
2022/12/23 08:02:32;;;;;;;;;;;23.90;63.50;;;;;;5109307;28;19947;-68
2022/12/23 08:04:59;;;;;;;;;;;23.90;66.00;;;;;;5110562;28;19959;-68
2022/12/23 08:07:25;;;;;;;;;;;23.90;66.40;;;;;;5110736;28;20007;-68
2022/12/23 08:09:52;;;;;;;;;;;23.80;67.00;;;;;;5109774;28;19968;-69
2022/12/23 08:12:19;;;;;;;;;;;23.80;67.30;;;;;;5111416;28;20622;-65
2022/12/23 08:14:47;;;;;;;;;;;23.80;67.60;;;;;;5111482;28;19916;-68
2022/12/23 08:17:13;;;;;;;;;;;23.70;67.40;;;;;;5111486;28;19908;-68
2022/12/23 08:19:40;;;;;;;;;;;23.60;67.30;;;;;;5106949;28;19959;-67
2022/12/23 08:22:07;;;;;;;;;;;23.60;67.30;;;;;;5101912;28;20061;-69
2022/12/23 08:24:33;;;;;;;;;;;23.60;67.30;;;;;;5109927;28;20284;-69
2022/12/23 08:27:00;;;;;;;;;;;23.60;67.80;;;;;;5111733;28;19947;-69
2022/12/23 08:29:26;;;;;;;;;;;23.50;67.60;;;;;;5097711;28;19920;-66
2022/12/23 11:20:19;;;;;;;;;;;22.60;73.50;;;;;;5106645;28;20711;-68
2022/12/23 11:22:50;;;;;;;;;;;22.60;73.80;;;;;;5110067;28;20497;-68
2022/12/23 11:25:27;;;;;;;;;;;22.60;74.20;;;;;;5111945;28;19926;-68
2022/12/23 11:27:55;;;;;;;;;;;22.60;74.60;;;;;;5111880;28;19954;-68
2022/12/23 11:30:22;;;;;;;;;;;22.50;75.00;;;;;;5092374;28;20002;-68
2022/12/23 11:32:49;;;;;;;;;;;22.50;75.40;;;;;;5110959;28;19935;-68
2022/12/23 11:35:35;;;;;;;;;;;22.50;75.60;;;;;;5088655;28;19919;-68
2022/12/23 11:38:01;;;;;;;;;;;22.50;75.40;;;;;;5107036;28;19912;-68
2022/12/23 11:40:28;;;;;;;;;;;22.40;75.30;;;;;;5111932;28;19953;-68
2022/12/23 11:43:01;;;;;;;;;;;22.40;75.30;;;;;;5111438;28;20477;-68
2022/12/23 11:45:29;;;;;;;;;;;22.40;75.10;;;;;;5082005;28;19920;-68
2022/12/23 11:47:55;;;;;;;;;;;22.40;75.00;;;;;;5115651;28;19915;-68
2022/12/23 11:50:26;;;;;;;;;;;22.40;74.80;;;;;;5087816;28;19920;-68
2022/12/23 11:53:13;;;;;;;;;;;22.40;74.70;;;;;;5105275;28;19926;-69
2022/12/23 11:55:44;;;;;;;;;;;22.40;74.60;;;;;;5107429;28;19911;-68
2022/12/23 11:58:15;;;;;;;;;;;22.30;74.40;;;;;;5115337;28;19912;-68
2022/12/23 12:00:42;;;;;;;;;;;22.30;74.60;;;;;;5091826;28;20011;-68
2022/12/23 12:03:14;;;;;;;;;;;22.30;74.80;;;;;;5096498;28;19919;-68
2022/12/23 12:05:45;;;;;;;;;;;22.30;74.90;;;;;;5114361;28;19916;-68
2022/12/23 12:08:15;;;;;;;;;;;22.30;75.10;;;;;;5115437;28;19935;-68
2022/12/23 12:10:42;;;;;;;;;;;22.30;75.20;;;;;;5114550;28;20250;-68
2022/12/23 12:13:27;;;;;;;;;;;22.30;75.00;;;;;;5114641;28;20142;-68
2022/12/23 12:15:53;;;;;;;;;;;22.30;74.80;;;;;;5113772;28;19923;-68
2022/12/23 12:18:20;;;;;;;;;;;22.30;74.60;;;;;;5115018;28;19955;-68
2022/12/23 21:49:06;;;;;;;;;;;23.50;73.10;;;;;;5104348;27;20041;-70
2022/12/23 21:51:33;;;;;;;;;;;23.70;72.50;;;;;;5134166;27;19960;-70
2022/12/23 21:53:59;;;;;;;;;;;23.80;72.70;;;;;;5102562;28;20393;-70
2022/12/23 21:56:27;;;;;;;;;;;23.90;72.40;;;;;;5129611;27;19955;-70
2022/12/23 21:58:54;;;;;;;;;;;23.90;70.90;;;;;;5097005;28;19926;-70
2022/12/23 22:01:21;;;;;;;;;;;23.90;70.60;;;;;;5095319;28;19973;-70
2022/12/23 22:03:48;;;;;;;;;;;24.00;71.80;;;;;;5095146;28;19908;-70
2022/12/23 22:06:19;;;;;;;;;;;23.90;70.90;;;;;;5115204;27;19968;-70
2022/12/23 22:08:46;;;;;;;;;;;23.90;71.00;;;;;;5112481;27;19991;-70
2022/12/23 22:11:13;;;;;;;;;;;24.00;71.10;;;;;;5128299;27;20373;-70
2022/12/23 22:13:40;;;;;;;;;;;24.10;70.40;;;;;;5103536;28;19914;-70
2022/12/23 22:16:10;;;;;;;;;;;24.20;70.10;;;;;;5126639;27;19907;-70
2022/12/23 22:18:37;;;;;;;;;;;24.30;70.40;;;;;;5126659;27;19908;-70
2022/12/23 22:21:07;;;;;;;;;;;24.30;70.90;;;;;;5127459;27;19912;-71
2022/12/23 22:23:34;;;;;;;;;;;24.40;69.90;;;;;;5096353;28;19914;-71
2022/12/23 22:26:01;;;;;;;;;;;24.50;70.60;;;;;;5123983;27;20365;-70
2022/12/23 22:28:29;;;;;;;;;;;24.50;70.70;;;;;;5123907;27;19927;-70
2022/12/23 22:31:00;;;;;;;;;;;24.60;70.30;;;;;;5126709;27;19929;-70
2022/12/23 22:33:26;;;;;;;;;;;24.60;69.30;;;;;;5095293;27;19998;-70
2022/12/23 22:35:56;;;;;;;;;;;24.70;69.90;;;;;;5125984;27;19963;-70
2022/12/23 22:38:23;;;;;;;;;;;24.80;70.10;;;;;;5122017;27;19912;-70
2022/12/23 22:40:50;;;;;;;;;;;24.80;70.20;;;;;;5104450;28;19950;-69
2022/12/23 22:43:16;;;;;;;;;;;25.00;68.80;;;;;;5118769;27;19915;-70
2022/12/23 22:45:43;;;;;;;;;;;25.10;68.50;;;;;;5133409;27;19933;-69
2022/12/23 22:48:10;;;;;;;;;;;25.30;68.60;;;;;;5113373;27;20382;-70
2022/12/23 22:50:37;;;;;;;;;;;25.50;67.00;;;;;;5092326;28;19928;-70
2022/12/23 22:53:03;;;;;;;;;;;25.60;67.40;;;;;;5097042;28;19908;-71
2022/12/23 22:55:30;;;;;;;;;;;25.70;67.20;;;;;;5082692;28;19991;-71
2022/12/23 22:57:57;;;;;;;;;;;25.80;65.90;;;;;;5092083;28;19930;-71
2022/12/23 23:00:23;;;;;;;;;;;25.80;65.70;;;;;;5092113;28;19915;-71
2022/12/23 23:02:50;;;;;;;;;;;26.00;65.80;;;;;;5091922;28;19908;-70
2022/12/23 23:05:16;;;;;;;;;;;26.00;65.50;;;;;;5091944;28;19916;-71
2022/12/23 23:07:43;;;;;;;;;;;26.10;65.40;;;;;;5091827;28;19908;-71
2022/12/23 23:10:10;;;;;;;;;;;26.20;64.30;;;;;;5091874;28;20266;-71
2022/12/23 23:12:36;;;;;;;;;;;26.30;63.90;;;;;;5090955;28;19915;-71
2022/12/23 23:15:03;;;;;;;;;;;26.40;63.90;;;;;;5089289;28;19919;-70
2022/12/23 23:17:30;;;;;;;;;;;26.50;62.50;;;;;;5071563;28;19919;-71
2022/12/23 23:19:56;;;;;;;;;;;26.60;63.60;;;;;;5089776;28;19908;-71
2022/12/23 23:22:23;;;;;;;;;;;26.60;63.60;;;;;;5087899;28;19950;-70
2022/12/23 23:24:50;;;;;;;;;;;26.70;62.70;;;;;;5089131;28;19974;-71
2022/12/23 23:27:16;;;;;;;;;;;26.70;61.40;;;;;;5089392;28;19934;-70
2022/12/23 23:29:43;;;;;;;;;;;26.80;62.20;;;;;;5072628;28;20165;-70
2022/12/23 23:32:09;;;;;;;;;;;26.80;61.30;;;;;;5070553;28;19912;-69
2022/12/23 23:34:36;;;;;;;;;;;26.90;60.80;;;;;;5073925;28;19954;-70
2022/12/23 23:37:03;;;;;;;;;;;27.00;60.80;;;;;;5091433;28;19912;-68
2022/12/23 23:39:30;;;;;;;;;;;27.00;61.10;;;;;;5108263;28;20389;-67
2022/12/23 23:41:57;;;;;;;;;;;27.10;61.00;;;;;;5095300;28;19970;-68
2022/12/23 23:44:23;;;;;;;;;;;27.10;60.30;;;;;;5095667;28;19908;-68
2022/12/23 23:46:50;;;;;;;;;;;27.10;61.40;;;;;;5093908;28;19920;-69
2022/12/23 23:49:16;;;;;;;;;;;27.10;61.20;;;;;;5098600;28;19927;-69
2022/12/23 23:51:43;;;;;;;;;;;27.20;60.70;;;;;;5112560;28;20708;-70
2022/12/23 23:54:10;;;;;;;;;;;27.20;60.60;;;;;;5115449;28;19908;-69
2022/12/23 23:56:36;;;;;;;;;;;27.30;59.70;;;;;;5115821;28;19908;-69
2022/12/23 23:59:03;;;;;;;;;;;27.30;59.80;;;;;;5094055;28;19912;-68
